createdAt,value
2022-08-19T00:01:57.986Z,24.07
2022-08-19T00:04:32.147Z,24.07
2022-08-19T00:07:01.613Z,24.11
2022-08-19T00:09:31.108Z,24.06
2022-08-19T00:12:00.603Z,24.05
2022-08-19T00:14:32.870Z,24.04
2022-08-19T00:17:02.103Z,23.49
2022-08-19T00:19:32.701Z,23.00
2022-08-19T00:22:01.161Z,22.58
2022-08-19T00:24:29.786Z,22.77
2022-08-19T00:27:26.268Z,23.00
2022-08-19T00:29:46.937Z,22.83
2022-08-19T00:32:21.402Z,22.87
2022-08-19T00:34:52.845Z,23.12
2022-08-19T00:37:23.820Z,22.92
2022-08-19T00:39:53.267Z,23.08
2022-08-19T00:42:23.206Z,23.13
2022-08-19T00:44:51.820Z,22.89
2022-08-19T00:47:20.911Z,23.10
2022-08-19T00:49:54.428Z,22.66
2022-08-19T00:52:28.233Z,21.96
2022-08-19T00:54:56.956Z,22.53
2022-08-19T00:57:30.792Z,22.48
2022-08-19T01:00:03.413Z,22.37
2022-08-19T01:02:33.415Z,22.54
2022-08-19T01:05:06.861Z,22.56
2022-08-19T01:07:38.309Z,22.84
2022-08-19T01:10:09.851Z,22.52
2022-08-19T01:12:38.814Z,22.51
2022-08-19T01:15:09.364Z,22.72
2022-08-19T01:17:40.706Z,22.79
2022-08-19T01:20:15.172Z,22.77
2022-08-19T01:22:48.655Z,22.34
2022-08-19T01:25:19.498Z,22.14
2022-08-19T01:27:53.631Z,22.48
2022-08-19T01:30:24.249Z,22.51
2022-08-19T01:32:53.565Z,22.60
2022-08-19T01:35:24.509Z,22.69
2022-08-19T01:37:57.137Z,22.63
2022-08-19T01:40:30.281Z,22.67
2022-08-19T01:42:58.885Z,22.75
2022-08-19T01:48:15.552Z,22.23
2022-08-19T01:50:44.272Z,22.67
2022-08-19T01:53:14.507Z,21.60
2022-08-19T01:55:46.259Z,22.65
2022-08-19T01:58:19.806Z,22.19
2022-08-19T02:00:48.141Z,22.31
2022-08-19T02:03:17.053Z,22.02
2022-08-19T02:05:46.820Z,21.69
2022-08-19T02:08:16.705Z,21.56
2022-08-19T02:10:46.038Z,21.98
2022-08-19T02:13:15.089Z,22.31
2022-08-19T02:15:43.578Z,22.51
2022-08-19T02:18:11.970Z,22.52
2022-08-19T02:20:42.656Z,22.60
2022-08-19T02:23:13.752Z,22.66
2022-08-19T02:25:47.697Z,22.68
2022-08-19T02:28:18.726Z,22.36
2022-08-19T02:30:48.900Z,22.17
2022-08-19T02:33:17.945Z,22.44
2022-08-19T02:35:47.102Z,22.15
2022-08-19T02:38:28.330Z,22.24
2022-08-19T02:41:00.699Z,21.79
2022-08-19T02:43:33.638Z,22.18
2022-08-19T02:46:03.220Z,22.45
2022-08-19T02:48:34.049Z,22.10
2022-08-19T02:51:02.557Z,21.66
2022-08-19T02:53:31.121Z,21.59
2022-08-19T02:56:01.066Z,21.70
2022-08-19T02:58:29.465Z,21.17
2022-08-19T03:00:59.471Z,20.62
2022-08-19T03:03:28.260Z,20.26
2022-08-19T03:06:09.883Z,20.49
2022-08-19T03:08:39.241Z,20.92
2022-08-19T03:11:09.195Z,20.90
2022-08-19T03:13:37.497Z,20.35
2022-08-19T03:16:08.213Z,20.74
2022-08-19T03:18:36.626Z,20.70
2022-08-19T03:21:05.975Z,21.14
2022-08-19T03:23:34.735Z,21.52
2022-08-19T03:26:16.343Z,21.83
2022-08-19T03:28:58.056Z,22.11
2022-08-19T03:31:44.857Z,22.12
2022-08-19T03:34:20.220Z,22.23
2022-08-19T03:36:49.130Z,22.28
2022-08-19T03:39:18.404Z,22.40
2022-08-19T03:41:48.798Z,22.51
2022-08-19T03:44:22.926Z,22.56
2022-08-19T03:46:53.172Z,22.41
2022-08-19T03:49:28.315Z,22.34
2022-08-19T03:51:58.616Z,22.46
2022-08-19T03:54:28.716Z,22.35
2022-08-19T03:56:59.278Z,22.35
2022-08-19T03:59:31.725Z,22.54
2022-08-19T04:02:03.633Z,22.42
2022-08-19T04:04:32.372Z,22.60
2022-08-19T04:07:01.002Z,22.66
2022-08-19T04:09:29.416Z,22.65
2022-08-19T04:11:59.486Z,22.79
2022-08-19T04:14:32.781Z,22.67
2022-08-19T04:17:02.155Z,22.64
2022-08-19T04:19:32.749Z,22.25
2022-08-19T04:22:01.449Z,22.56
2022-08-19T04:24:30.000Z,22.07
2022-08-19T04:26:59.198Z,21.64
2022-08-19T04:29:29.056Z,21.44
2022-08-19T04:31:59.695Z,21.13
2022-08-19T04:34:30.647Z,21.20
2022-08-19T04:37:00.656Z,21.66
2022-08-19T04:39:45.088Z,21.36
2022-08-19T04:42:36.714Z,20.87
2022-08-19T04:45:09.480Z,20.80
2022-08-19T04:47:47.698Z,21.02
2022-08-19T04:50:26.663Z,21.72
2022-08-19T04:52:56.672Z,22.18
2022-08-19T04:55:26.758Z,22.49
2022-08-19T04:57:55.613Z,22.60
2022-08-19T05:00:25.879Z,22.58
2022-08-19T05:02:54.285Z,22.96
2022-08-19T05:05:23.065Z,22.97
2022-08-19T05:07:52.329Z,22.91
2022-08-19T05:10:21.681Z,22.76
2022-08-19T05:12:50.100Z,23.12
2022-08-19T05:15:19.953Z,23.15
2022-08-19T05:18:03.669Z,23.42
2022-08-19T05:20:49.442Z,23.65
2022-08-19T05:23:21.875Z,23.70
2022-08-19T05:25:52.734Z,23.93
2022-08-19T05:28:22.501Z,24.02
2022-08-19T05:30:52.059Z,24.11
2022-08-19T05:33:25.472Z,24.18
2022-08-19T05:35:53.788Z,24.31
2022-08-19T05:38:22.477Z,24.60
2022-08-19T05:40:51.070Z,24.39
2022-08-19T05:43:19.688Z,24.73
2022-08-19T05:45:48.425Z,24.94
2022-08-19T05:48:18.530Z,25.05
2022-08-19T05:50:51.599Z,25.22
2022-08-19T05:53:20.783Z,25.16
2022-08-19T05:55:49.559Z,25.39
2022-08-19T05:58:18.520Z,25.81
2022-08-19T06:00:52.675Z,25.54
2022-08-19T06:03:21.071Z,25.35
2022-08-19T06:05:52.008Z,24.79
2022-08-19T06:08:34.564Z,24.71
2022-08-19T06:11:19.067Z,24.96
2022-08-19T06:13:52.001Z,25.41
2022-08-19T06:16:28.958Z,26.01
2022-08-19T06:18:58.766Z,26.25
2022-08-19T06:21:30.546Z,26.11
2022-08-19T06:24:00.352Z,26.03
2022-08-19T06:26:29.616Z,26.77
2022-08-19T06:28:58.258Z,27.37
2022-08-19T06:31:28.734Z,27.07
2022-08-19T06:33:57.214Z,26.74
2022-08-19T06:36:32.764Z,27.14
2022-08-19T06:39:03.301Z,27.55
2022-08-19T06:41:33.059Z,27.94
2022-08-19T06:44:01.404Z,28.54
2022-08-19T06:46:33.587Z,27.97
2022-08-19T06:49:03.949Z,28.42
2022-08-19T06:54:19.466Z,29.11
2022-08-19T06:56:48.525Z,29.04
2022-08-19T06:59:19.317Z,28.93
2022-08-19T07:01:50.711Z,29.29
2022-08-19T07:04:21.594Z,29.39
2022-08-19T07:06:55.284Z,29.56
2022-08-19T07:09:25.359Z,29.98
2022-08-19T07:11:55.530Z,30.23
2022-08-19T07:14:27.806Z,30.91
2022-08-19T07:16:58.671Z,31.22
2022-08-19T07:19:29.002Z,30.82
2022-08-19T07:21:57.740Z,31.76
2022-08-19T07:24:33.499Z,31.85
2022-08-19T07:27:04.334Z,31.46
2022-08-19T07:29:42.568Z,31.97
2022-08-19T07:32:13.506Z,32.25
2022-08-19T07:34:42.052Z,32.19
2022-08-19T07:37:11.425Z,32.34
2022-08-19T07:39:41.725Z,32.52
2022-08-19T07:42:13.613Z,32.86
2022-08-19T07:44:43.222Z,32.71
2022-08-19T07:47:48.758Z,33.58
2022-08-19T07:50:09.755Z,33.89
2022-08-19T07:52:40.567Z,34.16
2022-08-19T07:55:40.178Z,34.75
2022-08-19T07:58:01.169Z,33.75
2022-08-19T08:00:31.539Z,33.63
2022-08-19T08:02:59.858Z,32.95
2022-08-19T08:05:45.626Z,33.32
2022-08-19T08:08:32.131Z,33.16
2022-08-19T08:11:02.185Z,33.14
2022-08-19T08:13:30.865Z,33.80
2022-08-19T08:16:00.090Z,33.48
2022-08-19T08:18:30.476Z,33.53
2022-08-19T08:21:00.406Z,33.86
2022-08-19T08:23:30.356Z,34.75
2022-08-19T08:26:01.422Z,35.08
2022-08-19T08:28:30.811Z,36.10
2022-08-19T08:31:00.409Z,36.16
2022-08-19T08:33:33.737Z,35.70
2022-08-19T08:36:04.087Z,36.10
2022-08-19T08:38:39.019Z,35.46
2022-08-19T08:41:20.812Z,36.55
2022-08-19T08:43:52.210Z,36.54
2022-08-19T08:46:32.014Z,35.38
2022-08-19T08:49:08.519Z,35.08
2022-08-19T08:51:44.634Z,35.57
2022-08-19T08:54:20.091Z,36.62
2022-08-19T08:56:51.865Z,36.38
2022-08-19T08:59:25.672Z,36.62
2022-08-19T09:01:54.479Z,37.17
2022-08-19T09:04:23.908Z,37.58
2022-08-19T09:06:57.969Z,38.07
2022-08-19T09:09:33.646Z,39.08
2022-08-19T09:12:13.267Z,38.39
2022-08-19T09:14:51.821Z,38.12
2022-08-19T09:17:31.919Z,38.62
2022-08-19T09:20:09.046Z,37.70
2022-08-19T09:22:38.447Z,36.83
2022-08-19T09:25:08.949Z,37.53
2022-08-19T09:27:42.742Z,38.06
2022-08-19T09:30:15.933Z,38.38
2022-08-19T09:32:45.700Z,38.66
2022-08-19T09:35:16.684Z,39.80
2022-08-19T09:37:45.252Z,39.41
2022-08-19T09:40:15.595Z,37.98
2022-08-19T09:42:49.995Z,39.09
2022-08-19T09:45:21.592Z,38.59
2022-08-19T09:47:50.561Z,39.04
2022-08-19T09:50:19.847Z,39.17
2022-08-19T09:52:55.040Z,39.02
2022-08-19T09:55:31.228Z,38.91
2022-08-19T09:58:03.426Z,38.88
2022-08-19T10:00:32.861Z,39.06
2022-08-19T10:03:01.409Z,39.87
2022-08-19T10:05:50.318Z,40.04
2022-08-19T10:08:20.942Z,40.44
2022-08-19T10:10:49.870Z,41.23
2022-08-19T10:13:27.169Z,41.49
2022-08-19T10:15:57.387Z,40.93
2022-08-19T10:18:27.126Z,41.78
2022-08-19T10:21:08.800Z,40.98
2022-08-19T10:23:38.571Z,41.27
2022-08-19T10:26:07.966Z,42.02
2022-08-19T10:28:39.422Z,40.94
2022-08-19T10:31:08.868Z,42.09
2022-08-19T10:33:52.998Z,42.54
2022-08-19T10:36:24.830Z,41.51
2022-08-19T10:38:57.002Z,41.62
2022-08-19T10:41:29.976Z,41.38
2022-08-19T10:44:04.501Z,41.00
2022-08-19T10:46:34.176Z,41.76
2022-08-19T10:49:03.716Z,41.40
2022-08-19T10:51:49.903Z,40.97
2022-08-19T10:54:31.178Z,41.47
2022-08-19T10:56:59.544Z,42.03
2022-08-19T10:59:35.721Z,42.17
2022-08-19T11:02:08.441Z,42.18
2022-08-19T11:04:36.903Z,43.56
2022-08-19T11:07:06.360Z,42.62
2022-08-19T11:09:40.827Z,42.12
2022-08-19T11:12:10.665Z,42.92
2022-08-19T11:14:41.493Z,42.33
2022-08-19T11:17:09.978Z,41.91
2022-08-19T11:19:38.376Z,42.89
2022-08-19T11:22:09.564Z,43.47
2022-08-19T11:24:38.952Z,43.90
2022-08-19T11:27:11.269Z,43.54
2022-08-19T11:29:42.318Z,43.33
2022-08-19T11:32:14.027Z,43.68
2022-08-19T11:34:42.521Z,42.96
2022-08-19T11:37:10.903Z,42.88
2022-08-19T11:39:39.497Z,41.87
2022-08-19T11:42:29.277Z,41.16
2022-08-19T11:44:59.126Z,42.24
2022-08-19T11:47:27.710Z,43.01
2022-08-19T11:49:56.327Z,42.67
2022-08-19T11:52:24.893Z,42.86
2022-08-19T11:54:53.330Z,43.47
2022-08-19T11:57:21.626Z,42.59
2022-08-19T11:59:54.036Z,42.86
2022-08-19T12:02:24.421Z,43.54
2022-08-19T12:04:52.748Z,43.42
2022-08-19T12:07:21.258Z,42.60
2022-08-19T12:09:49.700Z,43.28
2022-08-19T12:12:18.257Z,42.18
2022-08-19T12:14:47.652Z,43.67
2022-08-19T12:17:16.398Z,44.13
2022-08-19T12:19:46.237Z,44.03
2022-08-19T12:22:14.553Z,43.66
2022-08-19T12:24:43.006Z,43.36
2022-08-19T12:27:12.944Z,43.17
2022-08-19T12:29:42.581Z,42.37
2022-08-19T12:32:12.283Z,42.37
2022-08-19T12:34:41.623Z,42.76
2022-08-19T12:37:12.104Z,42.92
2022-08-19T12:39:43.655Z,42.81
2022-08-19T12:42:13.477Z,43.13
2022-08-19T12:44:43.611Z,42.82
2022-08-19T12:47:14.542Z,42.33
2022-08-19T12:49:52.386Z,41.33
2022-08-19T12:52:26.939Z,41.43
2022-08-19T12:54:57.221Z,41.95
2022-08-19T12:57:32.197Z,42.52
2022-08-19T13:00:04.759Z,41.89
2022-08-19T13:02:38.480Z,41.50
2022-08-19T13:05:11.152Z,40.37
2022-08-19T13:07:42.549Z,40.10
2022-08-19T13:10:13.552Z,41.18
2022-08-19T13:12:43.120Z,41.44
2022-08-19T13:15:12.776Z,41.65
2022-08-19T13:17:43.966Z,42.16
2022-08-19T13:20:13.775Z,42.23
2022-08-19T13:22:43.749Z,41.88
2022-08-19T13:25:13.133Z,41.43
2022-08-19T13:27:42.074Z,41.60
2022-08-19T13:30:31.691Z,42.00
2022-08-19T13:33:16.623Z,42.09
2022-08-19T13:35:48.828Z,42.17
2022-08-19T13:38:21.715Z,41.55
2022-08-19T13:40:52.530Z,41.60
2022-08-19T13:43:23.399Z,41.05
2022-08-19T13:45:53.819Z,41.59
2022-08-19T13:48:22.753Z,41.73
2022-08-19T13:50:51.753Z,41.68
2022-08-19T13:53:21.730Z,41.46
2022-08-19T13:55:51.560Z,41.79
2022-08-19T13:58:19.955Z,41.38
2022-08-19T14:00:49.397Z,40.39
2022-08-19T14:03:18.055Z,40.53
2022-08-19T14:05:47.809Z,40.51
2022-08-19T14:08:16.303Z,39.81
2022-08-19T14:10:46.412Z,40.09
2022-08-19T14:13:18.398Z,40.23
2022-08-19T14:15:48.342Z,39.70
2022-08-19T14:18:17.327Z,39.45
2022-08-19T14:20:46.215Z,39.61
2022-08-19T14:23:14.767Z,39.24
2022-08-19T14:25:43.446Z,39.32
2022-08-19T14:28:13.281Z,38.92
2022-08-19T14:30:41.693Z,39.28
2022-08-19T14:33:10.628Z,38.99
2022-08-19T14:35:39.888Z,38.79
2022-08-19T14:38:17.770Z,38.95
2022-08-19T14:40:53.040Z,38.82
2022-08-19T14:43:24.556Z,38.42
2022-08-19T14:45:52.911Z,37.75
2022-08-19T14:48:22.617Z,38.00
2022-08-19T14:50:57.501Z,37.81
2022-08-19T14:53:26.824Z,37.62
2022-08-19T14:55:55.177Z,37.57
2022-08-19T14:58:28.481Z,37.56
2022-08-19T15:01:00.342Z,37.28
2022-08-19T15:03:29.114Z,37.22
2022-08-19T15:05:58.868Z,37.15
2022-08-19T15:08:27.564Z,37.15
2022-08-19T15:10:58.364Z,37.30
2022-08-19T15:13:30.511Z,37.06
2022-08-19T15:15:59.334Z,37.12
2022-08-19T15:18:27.766Z,36.64
2022-08-19T15:20:57.892Z,36.39
2022-08-19T15:23:26.242Z,36.71
2022-08-19T15:25:56.648Z,36.20
2022-08-19T15:28:25.725Z,36.26
2022-08-19T15:30:55.757Z,36.30
2022-08-19T15:33:24.013Z,36.14
2022-08-19T15:35:53.192Z,35.97
2022-08-19T15:38:24.599Z,35.80
2022-08-19T15:40:53.396Z,35.92
2022-08-19T15:43:23.455Z,35.89
2022-08-19T15:45:51.776Z,35.49
2022-08-19T15:48:21.538Z,35.37
2022-08-19T15:50:49.857Z,35.30
2022-08-19T15:53:18.179Z,34.69
2022-08-19T15:55:48.647Z,35.12
2022-08-19T15:58:34.947Z,35.08
2022-08-19T16:01:23.820Z,35.15
2022-08-19T16:04:14.931Z,34.79
2022-08-19T16:06:46.579Z,34.79
2022-08-19T16:09:15.688Z,34.85
2022-08-19T16:11:46.394Z,34.69
2022-08-19T16:14:15.142Z,34.45
2022-08-19T16:16:46.966Z,34.47
2022-08-19T16:19:20.026Z,34.41
2022-08-19T16:21:51.001Z,34.13
2022-08-19T16:24:21.701Z,34.04
2022-08-19T16:26:50.240Z,33.90
2022-08-19T16:29:33.304Z,33.56
2022-08-19T16:32:03.538Z,33.52
2022-08-19T16:34:33.623Z,33.21
2022-08-19T16:37:02.257Z,33.27
2022-08-19T16:39:30.736Z,33.15
2022-08-19T16:41:59.155Z,32.54
2022-08-19T16:44:29.749Z,32.52
2022-08-19T16:46:59.658Z,32.64
2022-08-19T16:49:54.076Z,32.71
2022-08-19T16:52:19.076Z,32.58
2022-08-19T16:54:47.424Z,32.15
2022-08-19T16:57:16.236Z,31.96
2022-08-19T16:59:48.785Z,32.29
2022-08-19T17:02:18.711Z,32.06
2022-08-19T17:04:58.402Z,31.27
2022-08-19T17:07:33.121Z,31.38
2022-08-19T17:10:03.186Z,31.63
2022-08-19T17:12:32.664Z,31.37
2022-08-19T17:15:02.715Z,31.11
2022-08-19T17:17:32.075Z,31.17
2022-08-19T17:20:02.620Z,30.81
2022-08-19T17:22:32.918Z,30.99
2022-08-19T17:25:04.540Z,30.90
2022-08-19T17:27:32.900Z,30.71
2022-08-19T17:30:03.657Z,30.59
2022-08-19T17:32:35.149Z,30.85
2022-08-19T17:35:04.927Z,31.03
2022-08-19T17:37:35.124Z,31.01
2022-08-19T17:40:04.091Z,30.96
2022-08-19T17:42:32.496Z,30.54
2022-08-19T17:45:00.885Z,30.41
2022-08-19T17:47:29.913Z,30.00
2022-08-19T17:49:58.657Z,30.55
2022-08-19T17:52:27.111Z,30.35
2022-08-19T17:54:56.994Z,30.15
2022-08-19T17:57:25.377Z,30.02
2022-08-19T17:59:54.065Z,29.88
2022-08-19T18:02:22.907Z,30.06
2022-08-19T18:04:51.464Z,30.07
2022-08-19T18:07:21.700Z,30.25
2022-08-19T18:09:52.898Z,30.32
2022-08-19T18:12:26.665Z,30.02
2022-08-19T18:14:55.036Z,30.06
2022-08-19T18:17:24.556Z,29.16
2022-08-19T18:19:53.183Z,30.15
2022-08-19T18:22:28.082Z,30.14
2022-08-19T18:24:57.714Z,29.96
2022-08-19T18:27:28.340Z,29.78
2022-08-19T18:29:59.674Z,29.78
2022-08-19T18:32:31.941Z,29.55
2022-08-19T18:35:01.740Z,29.49
2022-08-19T18:37:30.648Z,29.43
2022-08-19T18:40:16.730Z,29.40
2022-08-19T18:43:05.026Z,29.14
2022-08-19T18:45:51.028Z,28.34
2022-08-19T18:48:35.772Z,28.05
2022-08-19T18:51:04.197Z,28.06
2022-08-19T18:53:34.847Z,28.03
2022-08-19T18:56:03.299Z,28.11
2022-08-19T18:58:34.981Z,28.14
2022-08-19T19:01:11.009Z,28.15
2022-08-19T19:03:41.889Z,28.04
2022-08-19T19:06:10.473Z,27.56
2022-08-19T19:08:41.079Z,27.09
2022-08-19T19:11:10.072Z,27.40
2022-08-19T19:13:41.193Z,27.50
2022-08-19T19:16:11.668Z,27.51
2022-08-19T19:18:40.514Z,27.71
2022-08-19T19:21:09.948Z,27.82
2022-08-19T19:23:40.894Z,27.84
2022-08-19T19:26:10.656Z,27.72
2022-08-19T19:28:43.862Z,27.64
2022-08-19T19:31:14.300Z,27.60
2022-08-19T19:33:43.444Z,27.12
2022-08-19T19:36:12.780Z,27.16
2022-08-19T19:38:48.045Z,27.05
2022-08-19T19:41:19.424Z,27.09
2022-08-19T19:44:04.555Z,27.18
2022-08-19T19:46:38.479Z,27.44
2022-08-19T19:49:07.868Z,27.73
2022-08-19T19:51:37.805Z,27.86
2022-08-19T19:54:06.892Z,27.94
2022-08-19T19:56:35.709Z,28.01
2022-08-19T19:59:05.513Z,28.01
2022-08-19T20:01:34.137Z,28.03
2022-08-19T20:04:02.947Z,27.99
2022-08-19T20:06:31.509Z,27.95
2022-08-19T20:09:11.107Z,27.85
2022-08-19T20:11:42.693Z,27.78
2022-08-19T20:14:14.598Z,27.26
2022-08-19T20:16:46.072Z,26.93
2022-08-19T20:19:17.140Z,26.56
2022-08-19T20:21:50.794Z,27.28
2022-08-19T20:24:23.740Z,27.48
2022-08-19T20:26:53.613Z,27.58
2022-08-19T20:29:38.969Z,27.58
2022-08-19T20:32:10.579Z,27.44
2022-08-19T20:34:39.559Z,27.35
2022-08-19T20:37:09.687Z,27.46
2022-08-19T20:39:38.442Z,27.41
2022-08-19T20:42:07.243Z,27.39
2022-08-19T20:44:37.989Z,27.44
2022-08-19T20:47:06.637Z,27.32
2022-08-19T20:49:35.399Z,27.10
2022-08-19T20:52:05.357Z,26.91
2022-08-19T20:54:34.545Z,26.97
2022-08-19T20:57:03.955Z,26.94
2022-08-19T20:59:32.325Z,26.79
2022-08-19T21:02:02.113Z,26.55
2022-08-19T21:04:30.618Z,26.54
2022-08-19T21:06:58.984Z,26.81
2022-08-19T21:09:27.337Z,27.03
2022-08-19T21:11:55.745Z,26.98
2022-08-19T21:14:24.101Z,27.05
2022-08-19T21:16:52.531Z,27.04
2022-08-19T21:19:24.103Z,26.97
2022-08-19T21:21:53.109Z,27.02
2022-08-19T21:24:21.756Z,27.00
2022-08-19T21:26:55.999Z,27.01
2022-08-19T21:29:24.778Z,26.92
2022-08-19T21:31:53.270Z,26.85
2022-08-19T21:34:23.095Z,26.72
2022-08-19T21:36:51.503Z,26.70
2022-08-19T21:39:19.899Z,26.74
2022-08-19T21:41:48.298Z,26.78
2022-08-19T21:44:16.689Z,26.76
2022-08-19T21:46:45.018Z,26.75
2022-08-19T21:49:19.795Z,26.75
2022-08-19T21:51:49.932Z,26.87
2022-08-19T21:54:18.365Z,26.78
2022-08-19T21:56:47.207Z,26.50
2022-08-19T21:59:15.887Z,26.52
2022-08-19T22:01:48.839Z,26.66
2022-08-19T22:04:18.961Z,26.69
2022-08-19T22:06:47.390Z,26.39
2022-08-19T22:09:17.222Z,26.33
2022-08-19T22:11:45.515Z,26.08
2022-08-19T22:14:13.949Z,25.97
2022-08-19T22:16:42.231Z,25.60
2022-08-19T22:19:10.555Z,25.90
2022-08-19T22:21:40.855Z,26.10
2022-08-19T22:24:10.699Z,26.24
2022-08-19T22:26:40.468Z,26.15
2022-08-19T22:29:10.531Z,26.18
2022-08-19T22:31:44.201Z,26.15
2022-08-19T22:34:15.086Z,25.81
2022-08-19T22:36:43.399Z,25.72
2022-08-19T22:39:11.854Z,25.54
2022-08-19T22:41:41.912Z,25.66
2022-08-19T22:44:11.485Z,25.69
2022-08-19T22:46:40.091Z,25.60
2022-08-19T22:49:08.519Z,25.61
2022-08-19T22:51:54.312Z,25.75
2022-08-19T22:54:22.657Z,25.92
2022-08-19T22:56:52.877Z,25.90
2022-08-19T22:59:21.393Z,25.94
2022-08-19T23:01:49.786Z,25.80
2022-08-19T23:04:18.134Z,25.77
2022-08-19T23:06:46.596Z,25.74
2022-08-19T23:09:16.619Z,25.72
2022-08-19T23:11:46.400Z,25.61
2022-08-19T23:14:17.767Z,25.57
2022-08-19T23:16:51.049Z,25.61
2022-08-19T23:19:21.622Z,25.62
2022-08-19T23:21:50.712Z,25.64
2022-08-19T23:24:19.121Z,25.42
2022-08-19T23:27:01.306Z,25.48
2022-08-19T23:29:48.681Z,25.62
2022-08-19T23:32:18.074Z,25.55
2022-08-19T23:34:46.621Z,25.32
2022-08-19T23:37:16.185Z,25.43
2022-08-19T23:39:45.348Z,25.45
2022-08-19T23:42:14.439Z,25.38
2022-08-19T23:44:51.987Z,25.10
2022-08-19T23:47:22.237Z,25.54
2022-08-19T23:49:51.262Z,25.49
2022-08-19T23:52:19.873Z,25.42
2022-08-19T23:54:48.300Z,25.38
2022-08-19T23:57:16.727Z,25.46
2022-08-19T23:59:46.543Z,24.84
